createdAt,value
2022-11-09T00:00:22.710Z,87.07
2022-11-09T00:02:55.608Z,87.25
2022-11-09T00:05:25.295Z,87.22
2022-11-09T00:07:54.983Z,86.12
2022-11-09T00:10:24.766Z,85.28
2022-11-09T00:12:54.551Z,85.81
2022-11-09T00:15:24.462Z,86.38
2022-11-09T00:17:54.205Z,85.94
2022-11-09T00:20:23.911Z,86.19
2022-11-09T00:22:57.054Z,86.61
2022-11-09T00:25:26.881Z,86.33
2022-11-09T00:27:56.650Z,84.82
2022-11-09T00:30:27.636Z,85.14
2022-11-09T00:32:57.343Z,85.61
2022-11-09T00:35:27.521Z,85.23
2022-11-09T00:37:57.488Z,84.79
2022-11-09T00:40:27.327Z,85.11
2022-11-09T00:42:57.272Z,85.18
2022-11-09T00:45:27.057Z,85.21
2022-11-09T00:47:56.829Z,85.15
2022-11-09T00:50:26.580Z,85.04
2022-11-09T00:52:56.252Z,85.02
2022-11-09T00:55:26.592Z,85.22
2022-11-09T00:57:56.251Z,85.42
2022-11-09T01:00:25.994Z,85.84
2022-11-09T01:02:55.690Z,85.89
2022-11-09T01:05:25.543Z,86.01
2022-11-09T01:07:55.226Z,84.83
2022-11-09T01:10:24.870Z,84.68
2022-11-09T01:12:54.593Z,84.75
2022-11-09T01:15:25.293Z,85.34
2022-11-09T01:17:55.012Z,85.27
2022-11-09T01:20:24.936Z,86.20
2022-11-09T01:22:54.660Z,86.12
2022-11-09T01:25:24.357Z,86.74
2022-11-09T01:27:57.195Z,86.78
2022-11-09T01:30:28.113Z,87.68
2022-11-09T01:32:57.822Z,88.97
2022-11-09T01:35:27.654Z,89.00
2022-11-09T01:37:57.404Z,88.40
2022-11-09T01:40:28.865Z,88.08
2022-11-09T01:42:59.056Z,88.53
2022-11-09T01:45:31.182Z,89.02
2022-11-09T01:48:12.772Z,89.42
2022-11-09T01:50:51.446Z,90.01
2022-11-09T01:53:29.799Z,90.74
2022-11-09T01:56:06.794Z,91.29
2022-11-09T01:58:53.485Z,91.45
2022-11-09T02:01:23.259Z,92.05
2022-11-09T02:04:01.620Z,90.99
2022-11-09T02:06:32.976Z,90.22
2022-11-09T02:09:41.958Z,90.53
2022-11-09T02:12:15.031Z,91.17
2022-11-09T02:14:48.408Z,91.28
2022-11-09T02:17:19.886Z,92.25
2022-11-09T02:19:50.022Z,92.01
2022-11-09T02:22:19.907Z,92.31
2022-11-09T02:24:55.218Z,92.62
2022-11-09T02:27:26.566Z,93.37
2022-11-09T02:29:59.128Z,93.97
2022-11-09T02:32:31.183Z,94.04
2022-11-09T02:35:01.493Z,94.68
2022-11-09T02:37:48.920Z,94.23
2022-11-09T02:40:24.478Z,93.84
2022-11-09T02:42:54.888Z,93.96
2022-11-09T02:45:24.987Z,93.88
2022-11-09T02:47:55.254Z,94.22
2022-11-09T02:50:25.092Z,95.38
2022-11-09T02:52:55.052Z,95.22
2022-11-09T02:55:24.986Z,93.76
2022-11-09T02:57:54.882Z,93.65
2022-11-09T03:00:25.836Z,93.76
2022-11-09T03:02:56.000Z,93.66
2022-11-09T03:05:25.838Z,93.96
2022-11-09T03:07:56.730Z,93.33
2022-11-09T03:10:26.653Z,92.58
2022-11-09T03:12:56.422Z,92.21
2022-11-09T03:15:26.147Z,91.80
2022-11-09T03:17:57.059Z,92.51
2022-11-09T03:20:26.366Z,92.86
2022-11-09T03:23:02.066Z,90.23
2022-11-09T03:25:30.301Z,89.71
2022-11-09T03:28:00.400Z,90.03
2022-11-09T03:30:30.159Z,91.44
2022-11-09T03:33:10.373Z,90.97
2022-11-09T03:35:38.932Z,90.54
2022-11-09T03:38:08.682Z,89.59
2022-11-09T03:40:39.828Z,90.34
2022-11-09T03:43:09.351Z,91.08
2022-11-09T03:45:40.857Z,89.84
2022-11-09T03:48:09.953Z,89.98
2022-11-09T03:50:40.566Z,90.24
2022-11-09T03:53:11.777Z,90.21
2022-11-09T03:55:41.169Z,90.12
2022-11-09T03:58:13.318Z,90.06
2022-11-09T04:00:42.527Z,90.20
2022-11-09T04:03:12.177Z,89.34
2022-11-09T04:05:42.087Z,89.47
2022-11-09T04:08:12.018Z,89.76
2022-11-09T04:10:42.366Z,90.52
2022-11-09T04:13:12.095Z,90.96
2022-11-09T04:15:43.655Z,90.53
2022-11-09T04:18:16.080Z,90.99
2022-11-09T04:20:44.615Z,92.43
2022-11-09T04:23:14.696Z,93.84
2022-11-09T04:25:44.401Z,95.07
2022-11-09T04:28:14.245Z,96.32
2022-11-09T04:30:43.448Z,97.28
2022-11-09T04:33:13.134Z,96.50
2022-11-09T04:35:42.820Z,96.53
2022-11-09T04:38:14.849Z,96.75
2022-11-09T04:40:43.918Z,96.02
2022-11-09T04:43:15.923Z,95.83
2022-11-09T04:45:45.725Z,96.10
2022-11-09T04:48:15.727Z,96.30
2022-11-09T04:50:48.412Z,97.98
2022-11-09T04:53:16.379Z,98.71
2022-11-09T04:55:46.191Z,98.56
2022-11-09T04:58:18.017Z,99.28
2022-11-09T05:00:49.851Z,99.33
2022-11-09T05:03:20.004Z,99.51
2022-11-09T05:05:49.785Z,99.36
2022-11-09T05:08:17.420Z,99.14
2022-11-09T05:10:47.309Z,98.88
2022-11-09T05:13:17.447Z,99.03
2022-11-09T05:15:47.242Z,99.84
2022-11-09T05:18:17.004Z,100.00
2022-11-09T05:20:46.742Z,100.00
2022-11-09T05:23:35.408Z,100.00
2022-11-09T05:26:05.211Z,100.00
2022-11-09T05:28:34.984Z,100.00
2022-11-09T05:31:06.092Z,100.00
2022-11-09T05:33:35.052Z,100.00
2022-11-09T05:36:05.896Z,100.00
2022-11-09T05:38:35.318Z,100.00
2022-11-09T05:41:05.057Z,100.00
2022-11-09T05:43:35.041Z,100.00
2022-11-09T05:46:06.769Z,100.00
2022-11-09T05:48:35.879Z,100.00
2022-11-09T05:51:10.502Z,100.00
2022-11-09T05:53:45.165Z,100.00
2022-11-09T05:56:16.291Z,100.00
2022-11-09T05:58:46.155Z,100.00
2022-11-09T06:01:21.097Z,100.00
2022-11-09T06:03:49.105Z,100.00
2022-11-09T06:06:17.829Z,100.00
2022-11-09T06:08:48.008Z,100.00
2022-11-09T06:11:22.872Z,100.00
2022-11-09T06:13:53.632Z,100.00
2022-11-09T06:16:23.906Z,100.00
2022-11-09T06:18:53.532Z,100.00
2022-11-09T06:21:23.479Z,99.79
2022-11-09T06:23:53.579Z,99.99
2022-11-09T06:26:23.280Z,99.71
2022-11-09T06:28:53.260Z,98.56
2022-11-09T06:31:23.275Z,99.05
2022-11-09T06:33:51.038Z,99.25
2022-11-09T06:36:20.780Z,99.01
2022-11-09T06:38:54.155Z,98.54
2022-11-09T06:41:24.627Z,97.36
2022-11-09T06:43:52.927Z,96.38
2022-11-09T06:46:22.377Z,98.21
2022-11-09T06:48:54.336Z,97.94
2022-11-09T06:51:24.693Z,96.83
2022-11-09T06:53:53.939Z,96.47
2022-11-09T06:56:21.024Z,96.85
2022-11-09T06:58:50.983Z,97.83
2022-11-09T07:01:26.421Z,98.83
2022-11-09T07:03:56.196Z,99.87
2022-11-09T07:06:23.724Z,100.00
2022-11-09T07:08:56.949Z,100.00
2022-11-09T07:11:26.764Z,100.00
2022-11-09T07:13:57.773Z,100.00
2022-11-09T07:16:27.199Z,100.00
2022-11-09T07:18:57.478Z,100.00
2022-11-09T07:21:26.885Z,100.00
2022-11-09T07:23:59.774Z,100.00
2022-11-09T07:26:27.447Z,100.00
2022-11-09T07:28:57.034Z,100.00
2022-11-09T07:31:29.395Z,100.00
2022-11-09T07:33:59.024Z,100.00
2022-11-09T07:36:28.714Z,100.00
2022-11-09T07:38:59.078Z,100.00
2022-11-09T07:41:34.380Z,100.00
2022-11-09T07:44:02.205Z,100.00
2022-11-09T07:46:29.515Z,100.00
2022-11-09T07:48:59.192Z,100.00
2022-11-09T07:51:29.211Z,100.00
2022-11-09T07:53:58.918Z,100.00
2022-11-09T07:56:28.620Z,100.00
2022-11-09T07:58:58.365Z,100.00
2022-11-09T08:01:28.619Z,100.00
2022-11-09T08:03:58.450Z,100.00
2022-11-09T08:06:28.328Z,100.00
2022-11-09T08:08:58.297Z,100.00
2022-11-09T08:11:28.342Z,100.00
2022-11-09T08:13:58.221Z,100.00
2022-11-09T08:16:29.418Z,100.00
2022-11-09T08:18:58.103Z,100.00
2022-11-09T08:21:27.814Z,100.00
2022-11-09T08:23:57.613Z,100.00
2022-11-09T08:26:27.460Z,100.00
2022-11-09T08:28:57.268Z,100.00
2022-11-09T08:31:27.669Z,100.00
2022-11-09T08:33:57.180Z,100.00
2022-11-09T08:36:28.588Z,100.00
2022-11-09T08:38:59.266Z,100.00
2022-11-09T08:41:29.446Z,100.00
2022-11-09T08:43:59.312Z,100.00
2022-11-09T08:46:29.068Z,100.00
2022-11-09T08:48:58.906Z,100.00
2022-11-09T08:51:28.560Z,100.00
2022-11-09T08:53:58.726Z,100.00
2022-11-09T08:56:28.510Z,100.00
2022-11-09T08:58:58.400Z,100.00
2022-11-09T09:01:28.353Z,100.00
2022-11-09T09:03:58.160Z,100.00
2022-11-09T09:06:31.370Z,100.00
2022-11-09T09:09:01.239Z,100.00
2022-11-09T09:11:28.994Z,100.00
2022-11-09T09:13:58.589Z,100.00
2022-11-09T09:16:29.116Z,100.00
2022-11-09T09:18:58.853Z,100.00
2022-11-09T09:21:28.676Z,100.00
2022-11-09T09:23:58.436Z,100.00
2022-11-09T09:26:28.197Z,100.00
2022-11-09T09:28:58.577Z,100.00
2022-11-09T09:31:28.131Z,100.00
2022-11-09T09:33:57.907Z,100.00
2022-11-09T09:36:27.692Z,100.00
2022-11-09T09:38:58.701Z,100.00
2022-11-09T09:41:42.439Z,100.00
2022-11-09T09:44:28.165Z,100.00
2022-11-09T09:47:04.463Z,100.00
2022-11-09T09:49:37.027Z,100.00
2022-11-09T09:52:08.095Z,100.00
2022-11-09T09:54:58.057Z,100.00
2022-11-09T09:57:30.645Z,100.00
2022-11-09T10:00:02.501Z,100.00
2022-11-09T10:02:36.408Z,100.00
2022-11-09T10:05:14.575Z,100.00
2022-11-09T10:08:09.583Z,100.00
2022-11-09T10:11:00.677Z,100.00
2022-11-09T10:14:01.627Z,100.00
2022-11-09T10:16:46.502Z,100.00
2022-11-09T10:19:47.447Z,100.00
2022-11-09T10:22:22.928Z,100.00
2022-11-09T10:25:37.510Z,100.00
2022-11-09T10:28:17.873Z,100.00
2022-11-09T10:30:47.877Z,100.00
2022-11-09T10:33:21.365Z,100.00
2022-11-09T10:36:06.893Z,100.00
2022-11-09T10:38:49.971Z,100.00
2022-11-09T10:41:44.334Z,100.00
2022-11-09T10:44:20.936Z,99.96
2022-11-09T10:47:22.933Z,97.08
2022-11-09T10:50:24.485Z,90.73
2022-11-09T10:53:18.242Z,94.67
2022-11-09T10:55:55.058Z,100.00
2022-11-09T10:58:47.650Z,100.00
2022-11-09T11:01:29.461Z,100.00
2022-11-09T11:04:25.930Z,100.00
2022-11-09T11:06:56.098Z,100.00
2022-11-09T11:09:28.445Z,100.00
2022-11-09T11:12:20.710Z,100.00
2022-11-09T11:14:50.592Z,100.00
2022-11-09T11:17:37.113Z,100.00
2022-11-09T11:20:33.567Z,100.00
2022-11-09T11:23:26.150Z,100.00
2022-11-09T11:25:56.258Z,100.00
2022-11-09T11:28:40.024Z,100.00
2022-11-09T11:31:21.342Z,100.00
2022-11-09T11:33:51.319Z,100.00
2022-11-09T11:36:35.846Z,100.00
2022-11-09T11:39:19.550Z,100.00
2022-11-09T11:42:36.240Z,100.00
2022-11-09T11:45:42.351Z,100.00
2022-11-09T11:48:12.835Z,100.00
2022-11-09T11:50:57.365Z,100.00
2022-11-09T11:54:07.329Z,100.00
2022-11-09T11:56:48.045Z,100.00
2022-11-09T11:59:36.687Z,100.00
2022-11-09T12:02:28.117Z,100.00
2022-11-09T12:05:29.701Z,99.74
2022-11-09T12:08:08.114Z,99.75
2022-11-09T12:11:18.472Z,99.28
2022-11-09T12:14:37.293Z,99.01
2022-11-09T12:17:27.324Z,99.89
2022-11-09T12:20:30.999Z,100.00
2022-11-09T12:23:22.960Z,99.92
2022-11-09T12:26:38.515Z,100.00
2022-11-09T12:29:23.884Z,100.00
2022-11-09T12:32:02.633Z,99.79
2022-11-09T12:34:57.118Z,99.33
2022-11-09T12:37:40.077Z,98.92
2022-11-09T12:40:40.026Z,99.08
2022-11-09T12:43:26.689Z,99.12
2022-11-09T12:46:00.630Z,98.60
2022-11-09T12:48:35.378Z,98.25
2022-11-09T12:51:08.233Z,98.53
2022-11-09T12:53:39.424Z,98.75
2022-11-09T12:56:18.794Z,98.66
2022-11-09T12:58:49.235Z,98.53
2022-11-09T13:01:34.354Z,97.31
2022-11-09T13:04:06.589Z,97.44
2022-11-09T13:06:36.897Z,96.87
2022-11-09T13:09:23.524Z,97.19
2022-11-09T13:11:54.872Z,97.22
2022-11-09T13:14:22.151Z,97.45
2022-11-09T13:16:57.998Z,97.53
2022-11-09T13:19:56.814Z,97.33
2022-11-09T13:22:26.970Z,97.49
2022-11-09T13:25:04.625Z,97.31
2022-11-09T13:27:45.370Z,97.22
2022-11-09T13:30:24.867Z,97.18
2022-11-09T13:33:21.981Z,97.22
2022-11-09T13:35:52.046Z,96.34
2022-11-09T13:38:29.861Z,96.90
2022-11-09T13:41:02.239Z,96.82
2022-11-09T13:43:42.562Z,97.24
2022-11-09T13:46:12.528Z,97.27
2022-11-09T13:48:49.380Z,96.72
2022-11-09T13:51:47.460Z,96.97
2022-11-09T13:54:36.681Z,97.28
2022-11-09T13:57:07.805Z,98.36
2022-11-09T13:59:47.354Z,98.83
2022-11-09T14:02:24.871Z,98.85
2022-11-09T14:04:54.784Z,99.02
2022-11-09T14:07:30.800Z,99.85
2022-11-09T14:10:30.902Z,99.98
2022-11-09T14:13:34.615Z,100.00
2022-11-09T14:16:25.396Z,100.00
2022-11-09T14:19:32.658Z,100.00
2022-11-09T14:22:02.445Z,100.00
2022-11-09T14:24:36.810Z,100.00
2022-11-09T14:27:17.345Z,100.00
2022-11-09T14:30:02.405Z,100.00
2022-11-09T14:32:36.166Z,100.00
2022-11-09T14:35:24.030Z,100.00
2022-11-09T14:37:56.778Z,100.00
2022-11-09T14:40:30.043Z,100.00
2022-11-09T14:43:34.270Z,100.00
2022-11-09T14:46:14.449Z,100.00
2022-11-09T14:49:00.496Z,100.00
2022-11-09T14:51:40.688Z,100.00
2022-11-09T14:54:16.753Z,100.00
2022-11-09T14:56:47.755Z,100.00
2022-11-09T14:59:32.517Z,100.00
2022-11-09T15:02:13.677Z,100.00
2022-11-09T15:05:01.211Z,100.00
2022-11-09T15:07:35.302Z,100.00
2022-11-09T15:10:20.383Z,100.00
2022-11-09T15:12:56.225Z,100.00
2022-11-09T15:15:30.441Z,100.00
2022-11-09T15:18:01.447Z,100.00
2022-11-09T15:20:34.442Z,100.00
2022-11-09T15:23:20.965Z,100.00
2022-11-09T15:25:51.605Z,100.00
2022-11-09T15:28:28.469Z,100.00
2022-11-09T15:31:00.934Z,100.00
2022-11-09T15:33:33.671Z,100.00
2022-11-09T15:36:30.473Z,100.00
2022-11-09T15:39:16.834Z,100.00
2022-11-09T15:41:46.780Z,100.00
2022-11-09T15:44:17.260Z,100.00
2022-11-09T15:46:51.476Z,100.00
2022-11-09T15:49:26.780Z,100.00
2022-11-09T15:51:56.943Z,100.00
2022-11-09T15:54:26.903Z,100.00
2022-11-09T15:57:00.758Z,100.00
2022-11-09T15:59:30.795Z,100.00
2022-11-09T16:02:00.702Z,100.00
2022-11-09T16:04:30.720Z,100.00
2022-11-09T16:07:00.499Z,100.00
2022-11-09T16:09:33.338Z,100.00
2022-11-09T16:12:03.270Z,100.00
2022-11-09T16:14:36.696Z,100.00
2022-11-09T16:17:07.398Z,100.00
2022-11-09T16:19:39.837Z,100.00
2022-11-09T16:22:12.471Z,100.00
2022-11-09T16:24:43.509Z,100.00
2022-11-09T16:27:35.324Z,100.00
2022-11-09T16:30:05.367Z,100.00
2022-11-09T16:32:36.155Z,100.00
2022-11-09T16:35:26.037Z,100.00
2022-11-09T16:37:58.150Z,100.00
2022-11-09T16:40:29.110Z,100.00
2022-11-09T16:43:00.566Z,100.00
2022-11-09T16:45:33.904Z,100.00
2022-11-09T16:48:11.849Z,100.00
2022-11-09T16:50:42.113Z,100.00
2022-11-09T16:53:12.273Z,100.00
2022-11-09T16:55:42.438Z,100.00
2022-11-09T16:58:12.356Z,100.00
2022-11-09T17:01:09.613Z,100.00
2022-11-09T17:03:38.351Z,100.00
2022-11-09T17:06:12.095Z,100.00
2022-11-09T17:08:42.504Z,100.00
2022-11-09T17:11:15.357Z,100.00
2022-11-09T17:13:45.375Z,100.00
2022-11-09T17:16:20.487Z,100.00
2022-11-09T17:18:54.157Z,100.00
2022-11-09T17:21:28.102Z,100.00
2022-11-09T17:23:58.776Z,100.00
2022-11-09T17:26:32.765Z,100.00
2022-11-09T17:29:03.359Z,100.00
2022-11-09T17:31:34.044Z,100.00
2022-11-09T17:34:04.625Z,100.00
2022-11-09T17:37:02.564Z,100.00
2022-11-09T17:39:25.267Z,100.00
2022-11-09T17:41:55.160Z,100.00
2022-11-09T17:44:25.422Z,100.00
2022-11-09T17:46:55.389Z,100.00
2022-11-09T17:49:25.433Z,100.00
2022-11-09T17:51:55.407Z,100.00
2022-11-09T17:54:25.692Z,100.00
2022-11-09T17:56:55.874Z,100.00
2022-11-09T17:59:25.996Z,100.00
2022-11-09T18:01:56.430Z,100.00
2022-11-09T18:04:26.670Z,100.00
2022-11-09T18:06:56.981Z,100.00
2022-11-09T18:09:40.824Z,100.00
2022-11-09T18:12:16.581Z,100.00
2022-11-09T18:14:46.535Z,100.00
2022-11-09T18:17:16.612Z,100.00
2022-11-09T18:19:46.659Z,100.00
2022-11-09T18:22:16.564Z,100.00
2022-11-09T18:24:50.120Z,100.00
2022-11-09T18:27:19.758Z,100.00
2022-11-09T18:29:47.241Z,100.00
2022-11-09T18:32:17.670Z,100.00
2022-11-09T18:34:47.691Z,100.00
2022-11-09T18:37:17.603Z,100.00
2022-11-09T18:39:47.592Z,100.00
2022-11-09T18:42:18.279Z,100.00
2022-11-09T18:44:48.200Z,100.00
2022-11-09T18:47:18.510Z,100.00
2022-11-09T18:49:48.385Z,100.00
2022-11-09T18:52:18.973Z,100.00
2022-11-09T18:54:49.642Z,100.00
2022-11-09T18:57:20.137Z,100.00
2022-11-09T18:59:49.970Z,100.00
2022-11-09T19:02:20.152Z,100.00
2022-11-09T19:04:50.064Z,100.00
2022-11-09T19:07:20.177Z,100.00
2022-11-09T19:09:55.393Z,100.00
2022-11-09T19:12:26.588Z,100.00
2022-11-09T19:14:56.487Z,100.00
2022-11-09T19:17:26.520Z,100.00
2022-11-09T19:19:56.549Z,100.00
2022-11-09T19:22:28.826Z,100.00
2022-11-09T19:24:58.931Z,100.00
2022-11-09T19:27:28.989Z,100.00
2022-11-09T19:29:58.799Z,100.00
2022-11-09T19:32:28.805Z,100.00
2022-11-09T19:34:58.902Z,100.00
2022-11-09T19:37:29.107Z,100.00
2022-11-09T19:39:59.038Z,100.00
2022-11-09T19:42:28.971Z,100.00
2022-11-09T19:44:57.840Z,100.00
2022-11-09T19:47:26.231Z,100.00
2022-11-09T19:49:53.287Z,100.00
2022-11-09T19:52:23.437Z,100.00
2022-11-09T19:54:53.393Z,100.00
2022-11-09T19:57:23.490Z,100.00
2022-11-09T19:59:53.502Z,100.00
2022-11-09T20:02:24.396Z,100.00
2022-11-09T20:04:54.465Z,100.00
2022-11-09T20:07:24.073Z,100.00
2022-11-09T20:09:54.129Z,100.00
2022-11-09T20:12:42.950Z,100.00
2022-11-09T20:15:13.098Z,100.00
2022-11-09T20:17:43.264Z,100.00
2022-11-09T20:20:17.764Z,100.00
2022-11-09T20:22:45.321Z,100.00
2022-11-09T20:25:15.634Z,100.00
2022-11-09T20:27:45.581Z,100.00
2022-11-09T20:30:18.613Z,100.00
2022-11-09T20:32:46.746Z,100.00
2022-11-09T20:35:16.276Z,100.00
2022-11-09T20:37:44.546Z,100.00
2022-11-09T20:40:14.633Z,100.00
2022-11-09T20:42:44.589Z,100.00
2022-11-09T20:45:15.574Z,100.00
2022-11-09T20:48:05.028Z,100.00
2022-11-09T20:50:35.785Z,100.00
2022-11-09T20:53:05.681Z,100.00
2022-11-09T20:55:43.649Z,100.00
2022-11-09T20:58:14.048Z,100.00
2022-11-09T21:00:43.902Z,100.00
2022-11-09T21:03:13.637Z,100.00
2022-11-09T21:05:46.636Z,100.00
2022-11-09T21:08:20.667Z,100.00
2022-11-09T21:10:51.079Z,100.00
2022-11-09T21:13:22.402Z,100.00
2022-11-09T21:15:52.436Z,100.00
2022-11-09T21:18:25.307Z,100.00
2022-11-09T21:20:53.106Z,100.00
2022-11-09T21:23:22.910Z,100.00
2022-11-09T21:26:11.633Z,100.00
2022-11-09T21:29:00.131Z,100.00
2022-11-09T21:31:29.870Z,100.00
2022-11-09T21:33:58.414Z,100.00
2022-11-09T21:36:26.862Z,100.00
2022-11-09T21:38:55.424Z,100.00
2022-11-09T21:41:37.554Z,100.00
2022-11-09T21:44:08.025Z,100.00
2022-11-09T21:46:38.121Z,100.00
2022-11-09T21:49:07.816Z,100.00
2022-11-09T21:51:38.739Z,100.00
2022-11-09T21:54:09.628Z,100.00
2022-11-09T21:56:38.899Z,100.00
2022-11-09T21:59:06.351Z,100.00
2022-11-09T22:01:36.525Z,100.00
2022-11-09T22:04:07.292Z,100.00
2022-11-09T22:06:40.581Z,100.00
2022-11-09T22:09:15.665Z,100.00
2022-11-09T22:12:02.765Z,100.00
2022-11-09T22:14:51.232Z,100.00
2022-11-09T22:17:21.127Z,100.00
2022-11-09T22:20:09.534Z,100.00
2022-11-09T22:22:39.518Z,100.00
2022-11-09T22:25:09.635Z,100.00
2022-11-09T22:27:39.540Z,100.00
2022-11-09T22:30:10.105Z,100.00
2022-11-09T22:32:40.549Z,100.00
2022-11-09T22:35:10.757Z,100.00
2022-11-09T22:37:40.915Z,100.00
2022-11-09T22:40:11.172Z,100.00
2022-11-09T22:42:40.987Z,100.00
2022-11-09T22:45:11.031Z,100.00
2022-11-09T22:47:41.126Z,100.00
2022-11-09T22:50:09.509Z,100.00
2022-11-09T22:52:37.799Z,100.00
2022-11-09T22:55:07.172Z,100.00
2022-11-09T22:57:37.977Z,100.00
2022-11-09T23:00:06.208Z,100.00
2022-11-09T23:02:33.767Z,100.00
2022-11-09T23:05:02.049Z,100.00
2022-11-09T23:07:30.357Z,100.00
2022-11-09T23:09:58.824Z,100.00
2022-11-09T23:12:27.298Z,100.00
2022-11-09T23:15:06.311Z,100.00
2022-11-09T23:17:55.779Z,100.00
2022-11-09T23:20:25.072Z,100.00
2022-11-09T23:22:54.900Z,100.00
2022-11-09T23:25:43.753Z,100.00
2022-11-09T23:28:14.281Z,100.00
2022-11-09T23:30:44.178Z,100.00
2022-11-09T23:34:03.610Z,100.00
2022-11-09T23:36:33.419Z,100.00
2022-11-09T23:39:01.989Z,100.00
2022-11-09T23:41:30.361Z,100.00
2022-11-09T23:43:58.847Z,100.00
2022-11-09T23:46:27.100Z,100.00
2022-11-09T23:48:56.248Z,100.00
2022-11-09T23:51:24.342Z,100.00
2022-11-09T23:53:52.327Z,100.00
2022-11-09T23:56:21.716Z,100.00
2022-11-09T23:58:52.403Z,100.00
